Airfield :
LOGIN :

Register | Disclaimer

   EN    FR    IT 

 










Legend :    VFR   Marginal VFR   IFR   Intensive IFR   Very Intensive IFR
Visi :
Ceiling :
>= 8 km
>= 3000ft
5 to 8 km
1000 to 3000 ft
1500m to 5 km
500 to 1000 ft
800 to 1500m
200 to 500 ft
< 800m
< 200 ft
Symbols :   Thunderstorms  Fog  Heavy snow  Heavy precipitations  Wind > 20 kt
SIGMETs :     Misc.  Thunderstorms  Icing  Turbulence  Mountain Waves  Volcanic Ashes






- Airport Elevation : 287 ft


LFRL - Lanveoc Poulmic

CURRENT METAR :
  • 220930Z AUTO 28013KT 9999 FEW020 SCT047 18/13 Q1018

EXPIRED METARs :
  • 220900Z AUTO 28013KT 9999 BKN015 BKN029 BKN039 16/12 Q1018
  • 220830Z AUTO 28010KT 250V320 9999 BKN013 BKN022 BKN035 17/13 Q1017
  • 220800Z AUTO 28009KT 9999 FEW014 BKN048 15/12 Q1017
  • 220730Z AUTO 29010KT 9999 BKN014 BKN025 OVC050 15/13 Q1017
  • 220700Z AUTO 29010KT 9999 BKN013 OVC052 15/13 Q1017
  • 220630Z AUTO 28010KT 9999 OVC012 14/12 Q1017
  • 220600Z AUTO 28011KT 9999 SCT012 OVC052 14/13 Q1016
  • 220530Z AUTO 28010KT 9999 SCT013 SCT018 BKN052 14/13 Q1016

TAF TAF LFRL
Valid from the 21 at 12:00 until the 22 at 12:00 UTC


211100Z 2112/2212 22015KT 9999 BKN018
TEMPO 2112/2124 22015G25KT
TEMPO 2117/2122 2000 RADZ BKN003
TEMPO 2201/2206 3000 SHRA BKN007
BECMG 2203/2205 29013KT



MET'MAP, your aeronautical weather chart ! - Copyright ORBIFLY December 2007 - Disclaimer

ORBIFLY MET'MAP TEAM :

Programming & Development : Alexandra Zaïnal
Original concept : Baudouin d'Aumeries
Technical & hardware support : Manuel Goepfert
Assistance : Marc-Olivier Méhu




SOURCES & CREDITS :

   NOAA